Time;durP1;ratioP1;P1;durP2;ratioP2;P2;SDS_P1;SDS_P2;PMS_P1;PMS_P2;Temp;Humidity;BMP_temperature;BMP_pressure;BME280_temperature;BME280_humidity;BME280_pressure;Samples;Min_cycle;Max_cycle;Signal;HPM_P1;HPM_P2
2024/03/12 00:04:58;;;;;;;3.70;2.63;;;12.60;30.00;;;;;;10382101;28;20229;-70
2024/03/12 00:10:05;;;;;;;3.37;2.23;;;12.60;30.00;;;;;;10379789;28;20634;-70
2024/03/12 00:15:13;;;;;;;3.73;2.63;;;12.60;30.00;;;;;;10384194;28;20226;-70
2024/03/12 00:20:17;;;;;;;2.17;2.00;;;12.50;30.00;;;;;;10383662;28;20237;-70
2024/03/12 00:25:21;;;;;;;2.60;2.23;;;12.50;30.00;;;;;;10380119;28;20230;-70
2024/03/12 00:30:27;;;;;;;3.63;2.67;;;12.50;30.00;;;;;;10380783;28;20317;-70
2024/03/12 00:35:32;;;;;;;5.13;3.50;;;12.60;30.00;;;;;;10378644;28;20233;-70
2024/03/12 00:40:36;;;;;;;4.97;3.20;;;12.60;30.00;;;;;;10381226;28;20234;-70
2024/03/12 00:45:41;;;;;;;2.73;2.37;;;12.60;30.00;;;;;;10383570;28;20280;-70
2024/03/12 00:50:46;;;;;;;2.10;1.90;;;12.50;30.00;;;;;;10381629;28;20237;-70
2024/03/12 00:55:49;;;;;;;7.93;4.77;;;12.50;30.00;;;;;;10385930;28;20268;-70
2024/03/12 01:00:53;;;;;;;3.20;2.90;;;12.40;30.00;;;;;;10378412;28;20615;-70
2024/03/12 01:05:57;;;;;;;2.40;2.20;;;12.40;30.40;;;;;;10381566;28;20296;-70
2024/03/12 01:11:01;;;;;;;10.30;5.40;;;12.40;30.30;;;;;;10380678;28;20235;-70
2024/03/12 01:16:06;;;;;;;2.10;1.90;;;12.40;30.00;;;;;;10378888;28;20225;-70
2024/03/12 01:21:09;;;;;;;2.17;1.93;;;12.40;30.10;;;;;;10382023;28;20277;-70
2024/03/12 01:26:12;;;;;;;3.87;1.90;;;12.40;30.00;;;;;;10379216;28;20233;-70
2024/03/12 01:31:17;;;;;;;2.20;2.00;;;12.40;30.00;;;;;;10381408;28;20625;-70
2024/03/12 01:36:29;;;;;;;1.93;1.83;;;12.40;30.00;;;;;;10382233;28;20238;-70
2024/03/12 01:41:41;;;;;;;2.83;2.60;;;12.40;30.00;;;;;;10381860;28;20629;-70
2024/03/12 01:46:46;;;;;;;3.93;2.60;;;12.40;30.10;;;;;;10386270;28;20226;-70
2024/03/12 01:51:50;;;;;;;2.63;2.30;;;12.30;30.20;;;;;;10385000;28;20229;-70
2024/03/12 01:56:53;;;;;;;2.07;1.97;;;12.30;30.10;;;;;;10393123;28;20221;-70
2024/03/12 02:02:00;;;;;;;2.53;1.90;;;12.30;30.10;;;;;;10388027;28;20226;-70
2024/03/12 02:07:04;;;;;;;2.43;2.07;;;12.30;30.50;;;;;;10388627;28;20239;-70
2024/03/12 02:12:07;;;;;;;2.40;2.20;;;12.20;30.20;;;;;;10386807;28;20333;-70
2024/03/12 02:17:12;;;;;;;2.43;2.10;;;12.20;30.20;;;;;;10388440;28;20226;-70
2024/03/12 02:22:16;;;;;;;2.27;2.07;;;12.20;30.40;;;;;;10388262;28;20298;-70
2024/03/12 02:27:20;;;;;;;4.40;2.70;;;12.20;30.30;;;;;;10389736;28;20742;-70
2024/03/12 02:32:23;;;;;;;4.07;3.27;;;12.10;30.40;;;;;;10382135;28;20234;-70
2024/03/12 02:37:27;;;;;;;4.00;2.83;;;12.10;30.40;;;;;;10382932;28;20234;-70
2024/03/12 02:42:31;;;;;;;3.87;3.17;;;12.00;30.40;;;;;;10390559;28;20222;-70
2024/03/12 02:47:34;;;;;;;4.03;2.67;;;11.90;30.80;;;;;;10386457;28;20283;-70
2024/03/12 02:52:38;;;;;;;2.93;2.30;;;11.80;30.70;;;;;;10385483;28;20283;-70
2024/03/12 02:57:43;;;;;;;2.93;2.63;;;11.80;30.80;;;;;;10387133;28;20283;-70
2024/03/12 03:02:46;;;;;;;2.43;2.20;;;11.80;31.10;;;;;;10385505;28;20226;-70
2024/03/12 03:07:50;;;;;;;3.80;2.10;;;11.80;31.00;;;;;;10385345;28;20253;-70
2024/03/12 03:12:54;;;;;;;2.40;2.20;;;11.80;30.90;;;;;;10385160;28;20750;-70
2024/03/12 03:17:57;;;;;;;2.80;2.50;;;11.80;31.00;;;;;;10382753;28;20234;-70
2024/03/12 03:23:00;;;;;;;2.93;2.33;;;11.80;31.00;;;;;;10380033;28;20711;-70
2024/03/12 03:28:05;;;;;;;2.43;2.23;;;11.80;30.90;;;;;;10381381;28;21306;-70
2024/03/12 03:33:11;;;;;;;2.27;2.10;;;11.80;31.30;;;;;;10385952;28;20244;-70
2024/03/12 03:38:14;;;;;;;2.20;2.00;;;11.70;30.90;;;;;;10383708;28;20257;-70
2024/03/12 03:43:19;;;;;;;2.17;2.03;;;11.70;31.00;;;;;;10383741;28;20222;-70
2024/03/12 03:48:22;;;;;;;3.33;2.40;;;11.60;31.40;;;;;;10382574;28;20321;-70
2024/03/12 03:53:27;;;;;;;2.80;2.50;;;11.50;31.20;;;;;;10382530;28;20229;-70
2024/03/12 03:58:31;;;;;;;3.10;2.73;;;11.50;31.30;;;;;;10381113;28;20333;-70
2024/03/12 04:03:34;;;;;;;4.53;2.60;;;11.40;31.70;;;;;;10383208;28;20232;-70
2024/03/12 04:08:38;;;;;;;3.07;2.77;;;11.40;31.70;;;;;;10377955;28;20235;-70
2024/03/12 04:13:42;;;;;;;2.83;2.50;;;11.30;31.60;;;;;;10382678;28;20241;-70
2024/03/12 04:18:45;;;;;;;2.93;2.47;;;11.30;32.10;;;;;;10385366;28;20313;-70
2024/03/12 04:23:49;;;;;;;5.47;2.53;;;11.20;31.90;;;;;;10379719;28;20230;-70
2024/03/12 04:28:53;;;;;;;2.87;2.53;;;11.10;32.00;;;;;;10385309;28;20225;-70
2024/03/12 04:33:56;;;;;;;3.73;2.70;;;11.10;32.40;;;;;;10381466;28;20235;-70
2024/03/12 04:39:00;;;;;;;2.70;2.47;;;11.10;32.30;;;;;;10388267;28;20596;-70
2024/03/12 04:44:05;;;;;;;2.97;2.60;;;11.10;32.30;;;;;;10382561;28;20256;-70
2024/03/12 04:49:08;;;;;;;3.17;2.50;;;11.20;32.80;;;;;;10345801;28;20240;-70
2024/03/12 04:54:12;;;;;;;2.97;2.77;;;11.20;32.40;;;;;;10344516;28;20257;-70
2024/03/12 04:59:17;;;;;;;2.73;2.53;;;11.10;32.50;;;;;;10347132;28;20312;-70
2024/03/12 05:04:22;;;;;;;3.50;2.70;;;11.10;32.80;;;;;;10346380;28;20226;-70
2024/03/12 05:09:26;;;;;;;2.50;2.30;;;11.10;32.50;;;;;;10340354;28;20319;-70
2024/03/12 05:14:30;;;;;;;2.93;2.70;;;11.10;32.50;;;;;;10358093;28;20230;-70
2024/03/12 05:19:33;;;;;;;3.37;2.80;;;11.20;33.00;;;;;;10379079;28;20809;-70
2024/03/12 05:24:36;;;;;;;2.60;2.40;;;11.20;32.70;;;;;;10378954;28;20596;-70
2024/03/12 05:29:43;;;;;;;3.37;2.60;;;11.20;32.70;;;;;;10364437;28;20317;-70
2024/03/12 05:34:47;;;;;;;2.50;2.30;;;11.20;33.00;;;;;;10345096;28;20234;-70
2024/03/12 05:40:10;;;;;;;2.67;2.47;;;11.10;32.90;;;;;;10345857;28;20298;-70
2024/03/12 05:50:36;;;;;;;3.07;2.77;;;11.10;33.00;;;;;;10385830;28;20234;-72
2024/03/12 05:55:41;;;;;;;3.23;2.70;;;11.10;32.80;;;;;;10389579;28;20232;-70
2024/03/12 06:00:47;;;;;;;3.97;2.87;;;11.10;32.80;;;;;;10385700;28;20230;-70
2024/03/12 06:05:50;;;;;;;3.70;2.57;;;11.20;33.20;;;;;;10384742;28;20822;-70
2024/03/12 06:10:54;;;;;;;3.70;3.37;;;11.10;33.00;;;;;;10391636;28;20230;-70
2024/03/12 06:15:58;;;;;;;3.10;2.80;;;11.10;33.00;;;;;;10385646;28;20226;-70
2024/03/12 06:21:02;;;;;;;4.17;2.80;;;11.10;33.40;;;;;;10390110;28;20275;-70
2024/03/12 06:26:06;;;;;;;3.00;2.70;;;11.00;33.20;;;;;;10386627;28;20225;-69
2024/03/12 06:31:11;;;;;;;3.20;2.90;;;11.00;33.40;;;;;;10384114;28;20233;-70
2024/03/12 06:36:15;;;;;;;3.97;2.50;;;11.00;33.60;;;;;;10387449;28;20601;-69
2024/03/12 06:41:18;;;;;;;2.60;2.40;;;11.00;33.50;;;;;;10357896;28;20421;-70
2024/03/12 06:46:23;;;;;;;2.70;2.43;;;11.00;33.40;;;;;;10342368;28;20241;-70
2024/03/12 06:51:26;;;;;;;2.57;2.37;;;11.00;33.70;;;;;;10345809;28;20231;-70
2024/03/12 06:56:31;;;;;;;2.70;2.50;;;11.00;33.70;;;;;;10344807;28;20230;-70
2024/03/12 07:01:40;;;;;;;3.00;2.70;;;11.00;33.70;;;;;;10344132;28;20234;-70
2024/03/12 07:06:45;;;;;;;2.53;2.33;;;11.00;34.00;;;;;;10342983;28;20918;-70
2024/03/12 07:11:48;;;;;;;3.40;2.50;;;11.00;34.00;;;;;;10345853;28;20287;-71
2024/03/12 07:16:53;;;;;;;2.87;2.57;;;11.00;33.90;;;;;;10342319;28;20223;-71
2024/03/12 07:21:56;;;;;;;4.77;2.70;;;11.10;34.40;;;;;;10346083;28;20353;-71
2024/03/12 07:26:59;;;;;;;3.00;2.67;;;11.10;34.20;;;;;;10345924;28;20851;-71
2024/03/12 07:32:05;;;;;;;2.40;2.20;;;11.10;34.30;;;;;;10346680;28;20313;-70
2024/03/12 07:37:08;;;;;;;3.13;2.57;;;11.20;34.50;;;;;;10344965;28;20234;-71
2024/03/12 07:42:18;;;;;;;2.77;2.10;;;11.20;34.30;;;;;;10345362;28;20234;-71
2024/03/12 07:47:24;;;;;;;2.40;2.20;;;11.30;34.30;;;;;;10346794;28;20373;-71
2024/03/12 07:52:27;;;;;;;2.33;2.13;;;11.30;34.40;;;;;;10344521;28;20258;-71
2024/03/12 07:57:31;;;;;;;3.20;2.27;;;11.50;34.30;;;;;;10347325;28;20596;-71
2024/03/12 08:02:39;;;;;;;2.00;1.90;;;11.60;34.40;;;;;;10342817;28;20227;-71
2024/03/12 08:07:44;;;;;;;2.80;2.17;;;11.80;34.50;;;;;;10342644;28;20321;-71
2024/03/12 08:12:48;;;;;;;2.40;2.20;;;11.90;34.50;;;;;;10342934;28;20230;-71
2024/03/12 08:17:54;;;;;;;2.30;2.10;;;12.10;34.20;;;;;;10347749;28;20225;-71
2024/03/12 08:23:05;;;;;;;2.27;2.00;;;12.30;34.00;;;;;;10347104;28;20233;-70
2024/03/12 08:28:09;;;;;;;3.90;2.60;;;12.40;33.70;;;;;;10340780;28;20234;-71
2024/03/12 08:33:17;;;;;;;2.60;2.40;;;12.50;33.40;;;;;;10342332;28;20232;-71
2024/03/12 08:38:21;;;;;;;2.47;2.27;;;12.50;33.40;;;;;;10338413;28;20244;-71
2024/03/12 08:43:24;;;;;;;2.57;2.30;;;12.40;33.20;;;;;;10339251;28;20318;-71
2024/03/12 08:48:29;;;;;;;3.43;3.10;;;12.30;33.30;;;;;;10342443;28;20316;-71
2024/03/12 08:53:34;;;;;;;3.10;2.90;;;12.20;33.30;;;;;;10341994;28;20600;-71
2024/03/12 08:58:38;;;;;;;2.80;2.60;;;12.20;33.40;;;;;;10352847;28;20647;-71
2024/03/12 09:03:42;;;;;;;3.70;2.73;;;12.20;33.50;;;;;;10353024;28;20280;-72
2024/03/12 09:08:50;;;;;;;3.47;2.70;;;12.10;33.80;;;;;;10353490;28;20352;-71
2024/03/12 09:13:54;;;;;;;3.50;3.20;;;12.10;33.80;;;;;;10350730;28;20230;-71
2024/03/12 09:18:58;;;;;;;4.10;3.70;;;12.00;34.00;;;;;;10349935;28;20229;-71
2024/03/12 09:24:04;;;;;;;3.33;3.13;;;12.00;34.50;;;;;;10350639;28;20218;-70
2024/03/12 09:29:09;;;;;;;3.40;3.10;;;12.00;34.30;;;;;;10349384;28;20731;-71
2024/03/12 09:34:13;;;;;;;4.57;4.17;;;12.00;34.40;;;;;;10352732;28;20237;-71
2024/03/12 09:39:17;;;;;;;3.33;3.00;;;12.00;34.50;;;;;;10350840;28;20723;-71
2024/03/12 09:44:21;;;;;;;3.37;3.07;;;12.10;34.20;;;;;;10350943;28;20238;-71
2024/03/12 09:49:29;;;;;;;3.33;2.83;;;12.10;34.30;;;;;;10346899;28;20230;-71
2024/03/12 09:54:34;;;;;;;4.00;3.60;;;12.00;34.30;;;;;;10349388;28;20310;-71
2024/03/12 09:59:40;;;;;;;3.40;3.10;;;12.10;34.30;;;;;;10342720;28;20223;-71
2024/03/12 10:04:45;;;;;;;4.30;3.77;;;12.10;34.40;;;;;;10342904;28;20227;-71
2024/03/12 10:09:49;;;;;;;3.33;3.03;;;12.10;34.50;;;;;;10348737;28;20258;-71
2024/03/12 10:14:53;;;;;;;3.03;2.73;;;12.20;34.40;;;;;;10345442;28;20238;-71
2024/03/12 10:20:07;;;;;;;3.43;2.30;;;12.30;34.50;;;;;;10346857;28;20227;-71
2024/03/12 10:25:11;;;;;;;2.60;2.40;;;12.40;34.60;;;;;;10346372;28;20301;-71
2024/03/12 10:30:25;;;;;;;2.70;2.50;;;12.40;33.90;;;;;;10348167;28;20241;-71
2024/03/12 10:35:30;;;;;;;2.73;2.53;;;12.50;34.60;;;;;;10347491;28;20234;-71
2024/03/12 10:40:34;;;;;;;2.60;2.30;;;12.60;34.40;;;;;;10346074;28;20237;-71
2024/03/12 10:45:39;;;;;;;2.37;2.17;;;12.60;34.00;;;;;;10345235;28;20876;-71
2024/03/12 10:50:45;;;;;;;3.10;2.60;;;12.70;33.80;;;;;;10347981;28;20266;-71
2024/03/12 10:55:49;;;;;;;3.10;2.60;;;12.70;33.80;;;;;;10346761;28;20238;-71
2024/03/12 11:00:52;;;;;;;2.77;2.37;;;12.80;33.90;;;;;;10348958;28;20218;-71
2024/03/12 11:05:59;;;;;;;2.93;2.50;;;12.90;33.80;;;;;;10345707;28;20312;-71
2024/03/12 11:11:05;;;;;;;2.40;2.20;;;13.00;33.90;;;;;;10349929;28;20325;-70
2024/03/12 11:16:12;;;;;;;3.43;2.20;;;13.00;34.00;;;;;;10347457;28;20248;-71
2024/03/12 11:21:24;;;;;;;3.80;2.87;;;13.10;34.30;;;;;;10343759;28;20245;-71
2024/03/12 11:26:29;;;;;;;4.57;2.57;;;13.20;34.00;;;;;;10344707;28;20246;-71
2024/03/12 11:31:37;;;;;;;2.60;2.40;;;13.40;33.80;;;;;;10350461;28;20923;-71
2024/03/12 11:36:46;;;;;;;2.43;2.23;;;13.40;33.80;;;;;;10345715;28;20215;-71
2024/03/12 11:42:12;;;;;;;2.03;1.70;;;13.50;33.60;;;;;;10348504;28;20276;-71
2024/03/12 11:47:34;;;;;;;1.53;1.43;;;13.50;33.50;;;;;;10348645;28;20587;-71
2024/03/12 11:52:39;;;;;;;1.80;1.70;;;13.60;33.50;;;;;;10348005;28;20357;-71
2024/03/12 11:57:43;;;;;;;2.00;1.60;;;13.60;33.20;;;;;;10348851;28;20227;-71
2024/03/12 12:02:48;;;;;;;1.70;1.60;;;13.60;33.10;;;;;;10362987;28;20598;-71
2024/03/12 12:07:53;;;;;;;1.60;1.50;;;13.70;33.00;;;;;;10340130;28;21165;-71
2024/03/12 12:12:56;;;;;;;2.37;1.60;;;13.70;32.90;;;;;;10338362;28;21146;-72
2024/03/12 12:18:08;;;;;;;1.90;1.80;;;13.80;33.00;;;;;;10326240;28;21015;-72
2024/03/12 12:23:13;;;;;;;2.23;2.13;;;13.80;33.00;;;;;;10325851;28;20226;-72
2024/03/12 12:28:18;;;;;;;2.40;2.00;;;13.80;33.10;;;;;;10332880;28;20227;-70
2024/03/12 12:33:23;;;;;;;1.80;1.70;;;13.90;32.90;;;;;;10329787;28;20232;-72
2024/03/12 12:38:28;;;;;;;1.70;1.60;;;13.90;32.60;;;;;;10331536;28;20313;-71
2024/03/12 12:43:33;;;;;;;2.03;1.83;;;13.90;32.60;;;;;;10330704;28;20237;-72
2024/03/12 12:48:37;;;;;;;2.90;2.70;;;13.90;32.50;;;;;;10330008;28;20288;-71
2024/03/12 12:53:45;;;;;;;1.87;1.77;;;13.90;32.70;;;;;;10329616;28;20226;-72
2024/03/12 12:58:48;;;;;;;1.97;1.87;;;13.80;32.50;;;;;;10325800;28;20229;-72
2024/03/12 13:03:53;;;;;;;1.67;1.57;;;13.80;32.60;;;;;;10328160;28;20736;-72
2024/03/12 13:08:59;;;;;;;2.47;1.73;;;13.80;32.50;;;;;;10333452;28;20261;-72
2024/03/12 13:14:02;;;;;;;1.90;1.80;;;13.70;32.60;;;;;;10327614;28;20223;-72
2024/03/12 13:19:05;;;;;;;1.80;1.70;;;13.70;32.60;;;;;;10326760;28;20240;-71
2024/03/12 13:24:10;;;;;;;1.87;1.77;;;13.60;32.60;;;;;;10331578;28;20301;-71
2024/03/12 13:29:15;;;;;;;1.97;1.87;;;13.50;32.80;;;;;;10333080;28;20752;-72
2024/03/12 13:34:18;;;;;;;1.73;1.60;;;13.50;32.90;;;;;;10333259;28;20233;-72
2024/03/12 13:39:24;;;;;;;1.83;1.73;;;13.60;33.00;;;;;;10335914;28;20249;-72
2024/03/12 13:44:27;;;;;;;1.40;1.30;;;13.60;33.30;;;;;;10339796;28;20234;-72
2024/03/12 13:49:31;;;;;;;1.53;1.43;;;13.60;33.10;;;;;;10340503;28;20291;-72
2024/03/12 13:54:36;;;;;;;1.53;1.43;;;13.60;33.00;;;;;;10339580;28;20243;-72
2024/03/12 13:59:39;;;;;;;1.60;1.50;;;13.60;33.20;;;;;;10341739;28;20242;-72
2024/03/12 14:04:43;;;;;;;1.50;1.40;;;13.60;33.20;;;;;;10340918;28;20232;-72
2024/03/12 14:09:47;;;;;;;3.67;2.60;;;13.70;33.30;;;;;;10340597;28;21196;-71
2024/03/12 14:14:51;;;;;;;2.63;2.00;;;13.80;33.40;;;;;;10336993;28;20463;-72
2024/03/12 14:19:54;;;;;;;2.07;1.93;;;13.80;33.00;;;;;;10336447;28;20262;-70
2024/03/12 14:24:59;;;;;;;2.30;2.10;;;13.80;33.10;;;;;;10337469;28;20897;-70
2024/03/12 14:30:03;;;;;;;2.00;1.90;;;13.70;33.00;;;;;;10328285;28;20711;-69
2024/03/12 14:35:07;;;;;;;1.57;1.47;;;13.60;33.20;;;;;;10338968;28;20341;-70
2024/03/12 14:40:14;;;;;;;1.70;1.60;;;13.40;33.30;;;;;;10337317;28;20360;-70
2024/03/12 14:45:17;;;;;;;1.70;1.60;;;13.30;33.90;;;;;;10335763;28;20233;-71
2024/03/12 14:50:22;;;;;;;2.03;1.83;;;13.20;33.90;;;;;;10336493;28;20230;-70
2024/03/12 14:55:27;;;;;;;2.43;1.90;;;13.10;34.90;;;;;;10333551;28;20727;-70
2024/03/12 15:00:30;;;;;;;2.03;1.93;;;12.90;34.60;;;;;;10333579;28;20242;-70
2024/03/12 15:05:35;;;;;;;2.60;2.40;;;12.90;34.70;;;;;;10336565;28;20222;-73
2024/03/12 15:10:41;;;;;;;2.37;2.17;;;12.90;34.70;;;;;;10347556;28;20261;-70
2024/03/12 15:15:44;;;;;;;2.77;2.50;;;12.90;35.10;;;;;;10344202;28;20717;-70
2024/03/12 15:20:48;;;;;;;2.70;2.50;;;12.90;35.10;;;;;;10341581;28;20241;-71
2024/03/12 15:25:53;;;;;;;3.17;2.87;;;12.90;35.20;;;;;;10342475;28;20623;-70
2024/03/12 15:30:56;;;;;;;2.80;2.60;;;13.00;35.30;;;;;;10342081;28;20226;-71
2024/03/12 15:36:00;;;;;;;3.07;2.87;;;13.10;35.10;;;;;;10346313;28;20226;-71
2024/03/12 15:41:06;;;;;;;4.03;3.03;;;13.10;34.80;;;;;;10347742;28;20238;-70
2024/03/12 15:46:11;;;;;;;3.13;2.93;;;13.20;35.10;;;;;;10345741;28;20309;-70
2024/03/12 15:51:14;;;;;;;3.27;2.97;;;13.20;34.80;;;;;;10344815;28;20237;-70
2024/03/12 15:56:19;;;;;;;5.43;3.40;;;13.20;34.60;;;;;;10344581;28;20241;-70
2024/03/12 16:01:22;;;;;;;4.10;3.33;;;13.30;34.80;;;;;;10344601;28;20234;-71
2024/03/12 16:06:26;;;;;;;6.53;5.20;;;13.30;34.50;;;;;;10339570;28;20233;-71
2024/03/12 16:11:32;;;;;;;2.60;2.40;;;13.30;34.60;;;;;;10340796;28;20233;-71
2024/03/12 16:16:36;;;;;;;2.30;2.10;;;13.30;34.40;;;;;;10345309;28;20744;-71
2024/03/12 16:21:39;;;;;;;2.40;2.20;;;13.10;34.30;;;;;;10341112;28;20304;-71
2024/03/12 16:26:44;;;;;;;1.93;1.70;;;12.80;34.50;;;;;;10338325;28;20304;-71
2024/03/12 16:31:49;;;;;;;2.57;2.37;;;12.70;35.10;;;;;;10346241;28;20771;-73
2024/03/12 16:36:53;;;;;;;3.17;2.87;;;12.70;34.90;;;;;;10341596;28;20313;-71
2024/03/12 16:41:58;;;;;;;4.07;3.00;;;12.60;35.00;;;;;;10342786;28;20723;-71
2024/03/12 16:47:04;;;;;;;3.00;2.80;;;12.50;35.50;;;;;;10337921;28;20304;-71
2024/03/12 16:52:10;;;;;;;3.37;3.07;;;12.40;35.30;;;;;;10340188;28;20227;-71
2024/03/12 16:57:16;;;;;;;3.10;2.90;;;12.20;35.30;;;;;;10341354;28;20665;-70
2024/03/12 17:02:20;;;;;;;3.40;3.10;;;12.10;35.90;;;;;;10344102;28;20257;-70
2024/03/12 17:07:25;;;;;;;3.30;3.00;;;12.00;35.90;;;;;;10343620;28;20250;-71
2024/03/12 17:12:30;;;;;;;3.30;3.00;;;11.80;36.20;;;;;;10344666;28;20230;-70
2024/03/12 17:17:35;;;;;;;7.43;4.93;;;11.80;36.70;;;;;;10347260;28;20226;-69
2024/03/12 17:22:40;;;;;;;4.13;3.30;;;11.80;36.30;;;;;;10348430;28;20219;-70
2024/03/12 17:27:47;;;;;;;3.50;3.20;;;11.80;36.50;;;;;;10351342;28;20237;-69
2024/03/12 17:32:52;;;;;;;5.20;4.70;;;11.70;36.80;;;;;;10350542;28;20227;-70
2024/03/12 17:38:00;;;;;;;9.73;8.73;;;11.70;36.80;;;;;;10347975;28;20230;-69
2024/03/12 17:43:06;;;;;;;8.27;7.47;;;11.70;37.10;;;;;;10349273;28;20233;-70
2024/03/12 17:48:11;;;;;;;10.80;8.93;;;11.70;37.10;;;;;;10346966;28;20260;-70
2024/03/12 17:53:16;;;;;;;8.60;6.83;;;11.80;36.70;;;;;;10349736;28;20281;-70
2024/03/12 17:58:22;;;;;;;9.83;8.07;;;11.90;36.60;;;;;;10344597;28;20241;-70
2024/03/12 18:03:26;;;;;;;10.40;7.67;;;12.00;37.00;;;;;;10347626;28;20712;-70
2024/03/12 18:08:37;;;;;;;8.13;6.93;;;12.00;36.60;;;;;;10350341;28;20230;-70
2024/03/12 18:13:43;;;;;;;16.27;11.90;;;12.00;37.00;;;;;;10347788;28;20226;-70
2024/03/12 18:18:46;;;;;;;23.90;16.80;;;12.00;36.90;;;;;;10346677;28;20262;-70
2024/03/12 18:23:49;;;;;;;19.67;14.67;;;12.00;36.50;;;;;;10344195;28;20751;-70
2024/03/12 18:28:56;;;;;;;16.30;12.63;;;12.00;36.70;;;;;;10344023;28;20250;-70
2024/03/12 18:34:00;;;;;;;10.07;7.60;;;11.90;37.00;;;;;;10342065;28;20321;-70
2024/03/12 18:39:04;;;;;;;7.37;6.53;;;11.90;36.80;;;;;;10343954;28;20233;-70
2024/03/12 18:44:09;;;;;;;6.97;6.27;;;11.90;36.90;;;;;;10346135;28;20237;-70
2024/03/12 18:49:13;;;;;;;5.40;4.90;;;11.80;37.20;;;;;;10344816;28;20333;-70
2024/03/12 18:54:17;;;;;;;5.83;5.30;;;11.80;37.00;;;;;;10344548;28;20233;-70
2024/03/12 18:59:22;;;;;;;4.90;4.50;;;11.70;37.10;;;;;;10339730;28;20230;-70
2024/03/12 19:04:33;;;;;;;5.07;4.57;;;11.60;37.50;;;;;;10343726;28;20224;-70
2024/03/12 19:09:37;;;;;;;6.20;5.70;;;11.60;37.90;;;;;;10338192;28;20372;-70
2024/03/12 19:14:43;;;;;;;5.63;5.03;;;11.60;37.20;;;;;;10351040;28;20236;-70
2024/03/12 19:19:47;;;;;;;5.27;4.77;;;11.60;38.40;;;;;;10340559;28;20234;-70
2024/03/12 19:24:51;;;;;;;6.80;6.13;;;11.50;37.40;;;;;;10342834;28;20227;-70
2024/03/12 19:29:56;;;;;;;9.33;8.33;;;11.50;37.30;;;;;;10332745;28;20589;-70
2024/03/12 19:35:04;;;;;;;8.93;7.70;;;11.50;37.70;;;;;;10336989;28;20309;-69
2024/03/12 19:40:11;;;;;;;6.60;6.00;;;11.40;37.30;;;;;;10363139;28;20315;-70
2024/03/12 19:45:18;;;;;;;6.23;5.37;;;11.40;37.40;;;;;;10354131;28;20329;-70
2024/03/12 19:50:24;;;;;;;6.20;5.13;;;11.40;37.70;;;;;;10339376;28;21322;-70
2024/03/12 19:55:28;;;;;;;5.40;4.90;;;11.30;37.50;;;;;;10340912;28;20606;-70
2024/03/12 20:00:34;;;;;;;5.60;4.77;;;11.30;37.30;;;;;;10343841;28;20234;-70
2024/03/12 20:05:40;;;;;;;4.93;4.43;;;11.20;37.80;;;;;;10373073;28;20303;-70
2024/03/12 20:10:45;;;;;;;5.87;5.17;;;11.10;37.40;;;;;;10344546;28;20306;-70
2024/03/12 20:15:50;;;;;;;5.23;4.73;;;11.00;37.60;;;;;;10343002;28;20317;-70
2024/03/12 20:20:53;;;;;;;6.43;5.83;;;10.90;38.10;;;;;;10330121;28;20389;-70
2024/03/12 20:25:57;;;;;;;6.67;5.93;;;10.90;37.80;;;;;;10336400;28;20223;-70
2024/03/12 20:31:03;;;;;;;5.40;4.90;;;10.80;38.60;;;;;;10361967;28;20294;-70
2024/03/12 20:36:07;;;;;;;5.70;5.20;;;10.80;38.30;;;;;;10371898;28;20238;-70
2024/03/12 20:41:10;;;;;;;5.80;4.90;;;10.80;38.00;;;;;;10374543;28;20288;-70
2024/03/12 20:46:15;;;;;;;5.50;5.00;;;10.80;38.00;;;;;;10374455;28;20225;-70
2024/03/12 20:51:18;;;;;;;6.13;5.53;;;10.80;38.30;;;;;;10375693;28;21080;-70
2024/03/12 20:56:21;;;;;;;7.10;6.30;;;10.80;38.00;;;;;;10383396;28;20324;-70
2024/03/12 21:01:26;;;;;;;7.07;6.07;;;10.90;38.00;;;;;;10378303;28;20243;-70
2024/03/12 21:06:30;;;;;;;7.73;6.50;;;10.90;38.30;;;;;;10375411;28;20303;-69
2024/03/12 21:11:34;;;;;;;8.30;6.73;;;11.00;37.90;;;;;;10384059;28;20232;-70
2024/03/12 21:16:38;;;;;;;8.70;7.03;;;11.00;37.80;;;;;;10383117;28;20240;-70
2024/03/12 21:21:43;;;;;;;8.53;7.47;;;10.90;38.10;;;;;;10381067;28;20230;-70
2024/03/12 21:26:46;;;;;;;9.50;8.23;;;10.90;37.80;;;;;;10383605;28;20316;-70
2024/03/12 21:31:51;;;;;;;8.50;7.17;;;10.90;37.90;;;;;;10379043;28;20651;-70
2024/03/12 21:36:55;;;;;;;9.40;7.87;;;11.00;38.10;;;;;;10379636;28;20230;-70
2024/03/12 21:41:58;;;;;;;8.97;8.03;;;11.00;37.80;;;;;;10382440;28;20653;-70
2024/03/12 21:47:03;;;;;;;7.90;7.10;;;11.00;37.70;;;;;;10380515;28;20232;-70
2024/03/12 21:52:07;;;;;;;9.17;7.37;;;11.10;38.00;;;;;;10380299;28;20316;-70
2024/03/12 21:57:11;;;;;;;7.77;6.53;;;11.10;37.80;;;;;;10381576;28;20234;-70
2024/03/12 22:02:15;;;;;;;6.53;5.83;;;11.00;37.70;;;;;;10385201;28;20237;-70
2024/03/12 22:07:19;;;;;;;7.87;6.50;;;11.00;38.10;;;;;;10383357;28;20711;-70
2024/03/12 22:12:22;;;;;;;7.43;6.70;;;11.00;37.70;;;;;;10387816;28;20712;-70
2024/03/12 22:17:27;;;;;;;7.63;6.60;;;11.00;37.80;;;;;;10383764;28;20226;-70
2024/03/12 22:22:32;;;;;;;7.90;6.80;;;10.90;38.20;;;;;;10383972;28;20503;-70
2024/03/12 22:27:36;;;;;;;9.13;7.80;;;10.90;38.20;;;;;;10347530;28;20234;-70
2024/03/12 22:32:41;;;;;;;8.60;7.70;;;10.90;37.90;;;;;;10360465;28;20268;-70
2024/03/12 22:37:47;;;;;;;9.20;8.13;;;10.80;38.20;;;;;;10384736;28;20313;-70
2024/03/12 22:42:52;;;;;;;8.80;7.73;;;10.80;38.00;;;;;;10342793;28;20226;-70
2024/03/12 22:47:57;;;;;;;8.83;7.80;;;10.80;38.20;;;;;;10348844;28;20226;-70
2024/03/12 22:53:04;;;;;;;10.23;7.97;;;10.80;38.60;;;;;;10346892;28;20230;-70
2024/03/12 22:58:08;;;;;;;10.87;8.20;;;10.70;38.70;;;;;;10371314;28;20227;-70
2024/03/12 23:03:13;;;;;;;8.63;7.40;;;10.60;38.40;;;;;;10373972;28;20254;-70
2024/03/12 23:08:19;;;;;;;8.27;7.47;;;10.60;38.80;;;;;;10345987;28;20693;-70
2024/03/12 23:13:22;;;;;;;9.10;7.77;;;10.60;38.50;;;;;;10347966;28;20233;-70
2024/03/12 23:18:29;;;;;;;9.27;7.73;;;10.70;38.50;;;;;;10340666;28;20748;-70
2024/03/12 23:23:33;;;;;;;9.53;8.53;;;10.70;38.80;;;;;;10338936;28;20565;-69
2024/03/12 23:28:36;;;;;;;10.33;8.47;;;10.70;38.40;;;;;;10344412;28;20738;-70
2024/03/12 23:33:41;;;;;;;10.37;8.57;;;10.70;38.50;;;;;;10341577;28;20321;-70
2024/03/12 23:38:44;;;;;;;9.47;8.30;;;10.60;38.80;;;;;;10345558;28;20265;-70
2024/03/12 23:43:47;;;;;;;10.10;8.67;;;10.60;38.70;;;;;;10342264;28;20662;-70
2024/03/12 23:48:52;;;;;;;8.90;8.00;;;10.60;38.70;;;;;;10344164;28;20234;-70
2024/03/12 23:53:55;;;;;;;10.53;8.83;;;10.60;39.10;;;;;;10344620;28;20293;-69
2024/03/12 23:58:59;;;;;;;11.10;9.20;;;10.60;38.70;;;;;;10340633;28;20658;-70
